createdAt,value
2019-03-29T00:02:11.859Z,7.70
2019-03-29T00:07:16.108Z,7.70
2019-03-29T00:12:20.337Z,7.70
2019-03-29T00:17:24.583Z,7.70
2019-03-29T00:22:28.878Z,7.70
2019-03-29T00:27:33.130Z,7.70
2019-03-29T00:32:37.380Z,7.80
2019-03-29T00:37:52.773Z,7.80
2019-03-29T00:42:47.622Z,7.80
2019-03-29T00:47:52.160Z,7.80
2019-03-29T00:52:56.411Z,7.80
2019-03-29T00:58:02.804Z,7.70
2019-03-29T01:03:07.050Z,7.70
2019-03-29T01:08:11.881Z,7.60
2019-03-29T01:13:17.274Z,7.60
2019-03-29T01:18:21.519Z,7.60
2019-03-29T01:23:25.813Z,7.60
2019-03-29T01:28:30.059Z,7.60
2019-03-29T01:33:35.426Z,7.60
2019-03-29T01:38:39.667Z,7.60
2019-03-29T01:43:43.919Z,7.60
2019-03-29T01:48:48.909Z,7.60
2019-03-29T01:53:53.312Z,7.60
2019-03-29T01:58:57.550Z,7.50
2019-03-29T02:04:05.507Z,7.50
2019-03-29T02:09:08.361Z,7.50
2019-03-29T02:14:12.934Z,7.50
2019-03-29T02:19:17.224Z,7.50
2019-03-29T02:24:21.598Z,7.60
2019-03-29T02:29:25.869Z,7.60
2019-03-29T02:34:30.140Z,7.70
2019-03-29T02:39:34.401Z,7.70
2019-03-29T02:44:38.667Z,7.60
2019-03-29T02:49:42.951Z,7.70
2019-03-29T02:54:47.251Z,7.70
2019-03-29T02:59:52.508Z,7.70
2019-03-29T03:04:56.897Z,7.70
2019-03-29T03:10:01.237Z,7.80
2019-03-29T03:15:06.300Z,7.70
2019-03-29T03:20:15.154Z,7.70
2019-03-29T03:25:18.363Z,7.70
2019-03-29T03:30:22.751Z,7.70
2019-03-29T03:35:27.072Z,7.80
2019-03-29T03:40:31.615Z,7.80
2019-03-29T03:45:35.911Z,7.80
2019-03-29T03:50:41.881Z,7.80
2019-03-29T03:55:46.431Z,7.80
2019-03-29T04:00:53.732Z,7.80
2019-03-29T04:05:58.381Z,7.80
2019-03-29T04:11:03.005Z,7.80
2019-03-29T04:16:07.331Z,7.80
2019-03-29T04:21:11.595Z,7.90
2019-03-29T04:26:15.857Z,7.90
2019-03-29T04:31:20.667Z,7.90
2019-03-29T04:36:25.033Z,7.90
2019-03-29T04:41:29.361Z,7.90
2019-03-29T04:46:33.719Z,7.90
2019-03-29T04:51:37.987Z,7.90
2019-03-29T04:56:42.264Z,8.00
2019-03-29T05:01:46.523Z,8.00
2019-03-29T05:06:50.832Z,8.00
2019-03-29T05:11:55.818Z,8.10
2019-03-29T05:17:00.764Z,8.10
2019-03-29T05:22:05.036Z,8.20
2019-03-29T05:27:09.378Z,8.20
2019-03-29T05:32:13.648Z,8.20
2019-03-29T05:37:17.917Z,8.20
2019-03-29T05:42:22.183Z,8.20
2019-03-29T05:47:26.465Z,8.20
2019-03-29T05:52:30.850Z,8.30
2019-03-29T05:57:35.406Z,8.30
2019-03-29T06:02:40.074Z,8.40
2019-03-29T06:07:44.419Z,8.40
2019-03-29T06:12:48.714Z,8.40
2019-03-29T06:17:52.976Z,8.40
2019-03-29T06:22:57.510Z,8.50
2019-03-29T06:28:03.047Z,8.50
2019-03-29T06:33:07.756Z,8.50
2019-03-29T06:38:12.949Z,8.60
2019-03-29T06:43:18.944Z,8.60
2019-03-29T06:48:23.243Z,8.70
2019-03-29T06:53:27.778Z,8.80
2019-03-29T06:58:32.046Z,8.80
2019-03-29T07:03:36.309Z,8.80
2019-03-29T07:08:40.568Z,8.90
2019-03-29T07:13:56.675Z,9.10
2019-03-29T07:18:52.234Z,9.10
2019-03-29T07:23:56.620Z,9.10
2019-03-29T07:29:01.989Z,9.20
2019-03-29T07:34:06.326Z,9.30
2019-03-29T07:39:11.175Z,9.30
2019-03-29T07:44:15.436Z,9.40
2019-03-29T07:49:19.793Z,9.50
2019-03-29T07:54:24.051Z,9.60
2019-03-29T07:59:28.862Z,9.70
2019-03-29T08:04:33.210Z,9.90
2019-03-29T08:09:38.540Z,9.90
2019-03-29T08:14:47.588Z,9.90
2019-03-29T08:20:05.718Z,10.10
2019-03-29T08:24:59.522Z,10.20
2019-03-29T08:30:04.843Z,10.20
2019-03-29T08:35:09.450Z,10.30
2019-03-29T08:40:14.387Z,10.30
2019-03-29T08:45:20.193Z,10.30
2019-03-29T08:50:24.853Z,10.50
2019-03-29T08:55:29.474Z,10.80
2019-03-29T09:00:34.638Z,10.80
2019-03-29T09:05:39.408Z,10.90
2019-03-29T09:10:43.934Z,11.00
2019-03-29T09:15:48.198Z,11.00
2019-03-29T09:20:52.474Z,11.10
2019-03-29T09:25:56.818Z,11.20
2019-03-29T09:31:01.111Z,11.30
2019-03-29T09:36:05.516Z,11.40
2019-03-29T09:41:10.234Z,11.40
2019-03-29T09:46:14.546Z,11.40
2019-03-29T09:51:18.885Z,11.50
2019-03-29T09:56:37.626Z,11.50
2019-03-29T10:01:29.308Z,11.60
2019-03-29T10:06:33.709Z,11.50
2019-03-29T10:11:37.982Z,11.60
2019-03-29T10:16:42.272Z,11.80
2019-03-29T10:21:46.641Z,11.70
2019-03-29T10:26:50.923Z,11.90
2019-03-29T10:32:08.912Z,11.90
2019-03-29T10:37:10.092Z,11.90
2019-03-29T10:42:14.446Z,11.80
2019-03-29T10:47:18.745Z,11.80
2019-03-29T10:52:23.082Z,11.80
2019-03-29T10:57:27.343Z,11.80
2019-03-29T11:02:31.627Z,11.90
2019-03-29T11:07:35.910Z,11.70
2019-03-29T11:12:42.395Z,11.70
2019-03-29T11:17:53.910Z,11.60
2019-03-29T11:22:58.267Z,11.60
2019-03-29T11:28:02.534Z,11.70
2019-03-29T11:33:06.911Z,11.60
2019-03-29T11:38:11.279Z,11.60
2019-03-29T11:43:26.025Z,11.40
2019-03-29T11:48:21.627Z,11.40
2019-03-29T11:53:26.143Z,11.40
2019-03-29T11:58:30.671Z,11.40
2019-03-29T12:03:34.974Z,11.40
2019-03-29T12:08:39.492Z,11.40
2019-03-29T12:13:43.771Z,11.50
2019-03-29T12:18:48.299Z,11.60
2019-03-29T12:23:52.590Z,11.60
2019-03-29T12:28:56.867Z,11.60
2019-03-29T12:34:01.142Z,11.50
2019-03-29T12:39:07.591Z,11.60
2019-03-29T12:44:11.867Z,11.70
2019-03-29T12:49:16.159Z,11.90
2019-03-29T12:54:20.690Z,11.80
2019-03-29T12:59:25.058Z,11.80
2019-03-29T13:04:29.595Z,11.70
2019-03-29T13:09:34.128Z,11.50
2019-03-29T13:14:38.429Z,11.50
2019-03-29T13:19:42.691Z,11.50
2019-03-29T13:24:46.967Z,11.50
2019-03-29T13:29:51.260Z,11.70
2019-03-29T13:34:55.628Z,11.60
2019-03-29T13:39:59.967Z,11.70
2019-03-29T13:45:04.763Z,11.90
2019-03-29T13:50:10.790Z,12.00
2019-03-29T13:55:15.246Z,12.10
2019-03-29T14:00:19.527Z,12.20
2019-03-29T14:05:24.042Z,12.00
2019-03-29T14:10:28.316Z,12.10
2019-03-29T14:15:32.591Z,12.10
2019-03-29T14:20:38.978Z,12.00
2019-03-29T14:25:43.416Z,12.00
2019-03-29T14:30:47.738Z,12.10
2019-03-29T14:36:02.106Z,12.00
2019-03-29T14:41:12.478Z,11.90
2019-03-29T14:46:22.803Z,11.90
2019-03-29T14:51:29.162Z,12.00
2019-03-29T14:56:33.815Z,12.10
2019-03-29T15:01:38.134Z,12.10
2019-03-29T15:06:42.614Z,12.20
2019-03-29T15:11:47.139Z,12.10
2019-03-29T15:16:51.418Z,12.00
2019-03-29T15:21:55.702Z,12.00
2019-03-29T15:27:00.097Z,12.00
2019-03-29T15:32:04.644Z,11.90
2019-03-29T15:37:10.180Z,11.90
2019-03-29T15:42:16.728Z,11.90
2019-03-29T15:47:26.313Z,11.90
2019-03-29T15:52:30.690Z,11.90
2019-03-29T15:57:35.251Z,11.90
2019-03-29T16:02:39.584Z,11.90
2019-03-29T16:07:43.982Z,11.80
2019-03-29T16:12:48.348Z,11.90
2019-03-29T16:17:52.658Z,11.80
2019-03-29T16:22:57.192Z,11.80
2019-03-29T16:28:01.519Z,11.70
2019-03-29T16:33:07.860Z,11.70
2019-03-29T16:38:12.437Z,11.70
2019-03-29T16:43:17.986Z,11.60
2019-03-29T16:48:22.268Z,11.60
2019-03-29T16:53:26.588Z,11.60
2019-03-29T16:58:30.941Z,11.60
2019-03-29T17:03:35.214Z,11.50
2019-03-29T17:08:39.774Z,11.40
2019-03-29T17:13:45.045Z,11.30
2019-03-29T17:18:56.262Z,11.30
2019-03-29T17:24:01.238Z,11.30
2019-03-29T17:29:06.623Z,11.20
2019-03-29T17:34:12.004Z,11.20
2019-03-29T17:39:16.363Z,11.20
2019-03-29T17:44:20.651Z,11.10
2019-03-29T17:49:24.958Z,11.10
2019-03-29T17:54:29.292Z,11.00
2019-03-29T17:59:33.647Z,11.00
2019-03-29T18:04:39.043Z,11.00
2019-03-29T18:09:43.603Z,11.00
2019-03-29T18:14:53.789Z,11.00
2019-03-29T18:20:17.146Z,10.80
2019-03-29T18:25:23.150Z,10.70
2019-03-29T18:30:43.137Z,10.50
2019-03-29T18:35:48.361Z,10.50
2019-03-29T18:40:53.238Z,10.10
2019-03-29T18:45:58.941Z,9.90
2019-03-29T18:51:07.040Z,9.70
2019-03-29T18:56:11.788Z,9.50
2019-03-29T19:01:16.242Z,9.40
2019-03-29T19:06:20.520Z,9.10
2019-03-29T19:11:24.839Z,8.80
2019-03-29T19:16:30.139Z,8.70
2019-03-29T19:21:34.464Z,8.40
2019-03-29T19:26:38.791Z,8.30
2019-03-29T19:31:43.127Z,8.10
2019-03-29T19:36:51.354Z,7.90
2019-03-29T19:41:56.965Z,7.70
2019-03-29T19:47:13.262Z,7.50
2019-03-29T19:52:12.179Z,7.40
2019-03-29T19:57:22.849Z,7.30
2019-03-29T20:02:27.139Z,7.20
2019-03-29T20:07:31.594Z,6.90
2019-03-29T20:12:45.395Z,6.70
2019-03-29T20:17:53.603Z,6.60
2019-03-29T20:23:05.123Z,6.50
2019-03-29T20:28:21.718Z,6.50
2019-03-29T20:33:25.997Z,6.40
2019-03-29T20:38:35.764Z,6.20
2019-03-29T20:43:41.959Z,5.90
2019-03-29T20:48:48.276Z,5.80
2019-03-29T20:54:04.883Z,5.70
2019-03-29T20:59:01.573Z,5.60
2019-03-29T21:04:05.895Z,6.70
2019-03-29T21:09:18.730Z,5.50
2019-03-29T21:14:24.172Z,5.40
2019-03-29T21:19:28.883Z,5.30
2019-03-29T21:24:37.634Z,5.20
2019-03-29T21:30:20.791Z,5.10
2019-03-29T21:35:28.697Z,5.00
2019-03-29T21:40:32.958Z,5.00
2019-03-29T21:45:37.358Z,5.00
2019-03-29T21:50:41.994Z,5.00
2019-03-29T21:55:47.453Z,5.00
2019-03-29T22:00:51.790Z,5.00
2019-03-29T22:05:56.142Z,5.00
2019-03-29T22:11:01.708Z,5.10
2019-03-29T22:16:06.207Z,5.10
2019-03-29T22:21:11.618Z,5.10
2019-03-29T22:26:18.183Z,5.20
2019-03-29T22:31:22.723Z,5.10
2019-03-29T22:36:27.803Z,5.00
2019-03-29T22:41:32.675Z,6.80
2019-03-29T22:46:36.960Z,4.90
2019-03-29T22:51:43.319Z,4.80
2019-03-29T22:56:47.671Z,4.80
2019-03-29T23:01:51.942Z,4.70
2019-03-29T23:06:56.358Z,4.70
2019-03-29T23:12:00.639Z,4.70
2019-03-29T23:17:12.445Z,4.70
2019-03-29T23:22:16.835Z,4.60
2019-03-29T23:27:21.106Z,4.60
2019-03-29T23:32:26.492Z,4.50
2019-03-29T23:37:31.028Z,4.40
2019-03-29T23:42:36.203Z,4.30
2019-03-29T23:47:40.735Z,4.20
2019-03-29T23:52:45.547Z,4.20
2019-03-29T23:57:50.078Z,4.10
